createdAt,value
2018-09-15T00:04:55.610Z,18.00
2018-09-15T00:07:26.048Z,17.90
2018-09-15T00:09:54.966Z,17.80
2018-09-15T00:12:24.080Z,17.70
2018-09-15T00:14:53.240Z,17.70
2018-09-15T00:17:22.290Z,17.70
2018-09-15T00:19:51.294Z,17.70
2018-09-15T00:22:21.218Z,17.60
2018-09-15T00:24:50.373Z,17.60
2018-09-15T00:27:19.589Z,17.60
2018-09-15T00:29:48.618Z,17.60
2018-09-15T00:32:17.622Z,17.60
2018-09-15T00:34:46.617Z,17.60
2018-09-15T00:37:16.052Z,17.50
2018-09-15T00:39:45.143Z,17.50
2018-09-15T00:42:14.241Z,17.40
2018-09-15T00:44:43.253Z,17.50
2018-09-15T00:47:12.236Z,17.40
2018-09-15T00:49:42.945Z,17.40
2018-09-15T00:52:12.012Z,17.50
2018-09-15T00:54:41.007Z,17.50
2018-09-15T00:57:10.779Z,17.50
2018-09-15T00:59:40.005Z,17.60
2018-09-15T01:02:09.099Z,17.50
2018-09-15T01:04:39.258Z,17.50
2018-09-15T01:07:08.662Z,17.50
2018-09-15T01:09:37.665Z,17.40
2018-09-15T01:14:35.596Z,17.50
2018-09-15T01:17:04.599Z,17.50
2018-09-15T01:19:34.248Z,17.50
2018-09-15T01:22:03.217Z,17.50
2018-09-15T01:24:32.230Z,17.50
2018-09-15T01:27:02.040Z,17.50
2018-09-15T01:29:31.189Z,17.50
2018-09-15T01:32:00.397Z,17.50
2018-09-15T01:34:29.651Z,17.50
2018-09-15T01:36:58.621Z,17.50
2018-09-15T01:39:27.721Z,17.50
2018-09-15T01:44:26.365Z,17.40
2018-09-15T01:46:55.575Z,17.20
2018-09-15T01:49:28.768Z,17.20
2018-09-15T01:51:58.087Z,17.00
2018-09-15T01:54:27.341Z,16.90
2018-09-15T01:56:56.910Z,16.90
2018-09-15T01:59:26.023Z,16.80
2018-09-15T02:01:54.975Z,16.70
2018-09-15T02:04:24.348Z,16.70
2018-09-15T02:06:53.392Z,16.70
2018-09-15T02:09:23.687Z,16.60
2018-09-15T02:11:55.855Z,16.50
2018-09-15T02:14:24.928Z,16.60
2018-09-15T02:16:54.047Z,16.50
2018-09-15T02:19:25.671Z,16.60
2018-09-15T02:21:54.734Z,16.60
2018-09-15T02:24:23.735Z,16.50
2018-09-15T02:26:54.159Z,16.50
2018-09-15T02:29:23.290Z,16.50
2018-09-15T02:34:22.032Z,16.50
2018-09-15T02:36:51.055Z,16.30
2018-09-15T02:39:20.115Z,16.30
2018-09-15T02:41:49.347Z,16.30
2018-09-15T02:44:18.498Z,16.30
2018-09-15T02:46:47.711Z,16.40
2018-09-15T02:49:16.937Z,16.40
2018-09-15T02:51:46.137Z,16.40
2018-09-15T02:54:16.236Z,16.40
2018-09-15T02:56:45.395Z,16.50
2018-09-15T02:59:14.528Z,16.50
2018-09-15T03:01:43.862Z,16.50
2018-09-15T03:04:12.933Z,16.50
2018-09-15T03:06:42.178Z,16.60
2018-09-15T03:09:14.638Z,16.60
2018-09-15T03:11:43.644Z,16.60
2018-09-15T03:14:12.746Z,16.50
2018-09-15T03:16:42.013Z,16.60
2018-09-15T03:19:11.017Z,16.60
2018-09-15T03:21:40.085Z,16.60
2018-09-15T03:24:09.074Z,16.60
2018-09-15T03:26:38.235Z,16.50
2018-09-15T03:29:07.432Z,16.50
2018-09-15T03:31:36.884Z,16.50
2018-09-15T03:34:06.170Z,16.50
2018-09-15T03:36:35.391Z,16.50
2018-09-15T03:39:07.496Z,16.50
2018-09-15T03:41:36.564Z,16.50
2018-09-15T03:44:05.610Z,16.50
2018-09-15T03:46:34.954Z,16.40
2018-09-15T03:49:04.010Z,16.40
2018-09-15T03:51:33.121Z,16.40
2018-09-15T03:54:02.175Z,16.30
2018-09-15T03:56:31.254Z,16.30
2018-09-15T03:59:00.264Z,16.40
2018-09-15T04:01:31.638Z,16.30
2018-09-15T04:04:00.993Z,16.30
2018-09-15T04:06:29.948Z,16.30
2018-09-15T04:08:59.754Z,16.30
2018-09-15T04:16:27.985Z,16.20
2018-09-15T04:18:57.057Z,16.20
2018-09-15T04:21:26.291Z,16.20
2018-09-15T04:23:55.642Z,16.30
2018-09-15T04:26:24.811Z,16.30
2018-09-15T04:28:54.117Z,16.30
2018-09-15T04:31:24.198Z,16.30
2018-09-15T04:33:53.462Z,16.40
2018-09-15T04:36:22.386Z,16.40
2018-09-15T04:38:53.251Z,16.50
2018-09-15T04:41:22.570Z,16.50
2018-09-15T04:43:51.578Z,16.50
2018-09-15T04:46:21.037Z,16.50
2018-09-15T04:48:50.104Z,16.60
2018-09-15T04:53:47.575Z,16.70
2018-09-15T04:56:16.623Z,16.70
2018-09-15T04:58:46.292Z,16.70
2018-09-15T05:01:15.354Z,16.70
2018-09-15T05:03:44.564Z,16.80
2018-09-15T05:06:13.836Z,16.90
2018-09-15T05:08:43.007Z,16.90
2018-09-15T05:11:12.016Z,17.00
2018-09-15T05:13:41.163Z,17.00
2018-09-15T05:16:10.246Z,17.10
2018-09-15T05:18:39.257Z,17.20
2018-09-15T05:21:08.825Z,17.20
2018-09-15T05:23:37.884Z,17.30
2018-09-15T05:26:06.997Z,17.40
2018-09-15T05:28:37.714Z,17.40
2018-09-15T05:31:06.863Z,17.60
2018-09-15T05:33:36.081Z,17.60
2018-09-15T05:36:05.516Z,17.80
2018-09-15T05:38:34.516Z,17.90
2018-09-15T05:41:03.912Z,17.90
2018-09-15T05:43:34.671Z,18.20
2018-09-15T05:46:03.772Z,18.20
2018-09-15T05:48:32.885Z,18.50
2018-09-15T05:51:02.332Z,18.70
2018-09-15T05:53:31.207Z,19.00
2018-09-15T05:56:00.178Z,19.30
2018-09-15T05:58:30.770Z,19.60
2018-09-15T06:00:59.806Z,19.60
2018-09-15T06:03:28.702Z,20.00
2018-09-15T06:05:59.017Z,20.40
2018-09-15T06:08:27.828Z,21.20
2018-09-15T06:10:56.608Z,21.30
2018-09-15T06:13:27.723Z,21.90
2018-09-15T06:15:56.937Z,22.70
2018-09-15T06:18:25.923Z,24.30
2018-09-15T06:20:55.309Z,25.40
2018-09-15T06:23:24.279Z,25.50
2018-09-15T06:25:53.372Z,27.70
2018-09-15T06:28:22.697Z,28.80
2018-09-15T06:30:52.502Z,28.80
2018-09-15T06:33:21.651Z,29.80
2018-09-15T06:35:51.540Z,31.00
2018-09-15T06:38:20.698Z,31.60
2018-09-15T06:40:49.902Z,33.50
2018-09-15T06:43:18.811Z,33.60
2018-09-15T06:45:47.994Z,34.40
2018-09-15T06:48:18.220Z,35.30
2018-09-15T06:50:47.312Z,36.10
2018-09-15T06:53:16.394Z,36.70
2018-09-15T06:55:46.264Z,37.40
2018-09-15T06:58:15.335Z,38.20
2018-09-15T07:00:44.577Z,39.20
2018-09-15T07:03:14.601Z,39.30
2018-09-15T07:05:43.448Z,40.60
2018-09-15T07:08:12.198Z,40.70
2018-09-15T07:10:41.320Z,41.40
2018-09-15T07:13:10.766Z,41.80
2018-09-15T07:15:39.831Z,42.30
2018-09-15T07:18:09.878Z,43.00
2018-09-15T07:20:38.664Z,43.30
2018-09-15T07:23:07.435Z,43.80
2018-09-15T07:25:38.351Z,44.20
2018-09-15T07:28:07.513Z,44.60
2018-09-15T07:30:36.303Z,45.00
2018-09-15T07:33:05.481Z,45.90
2018-09-15T07:35:34.669Z,45.90
2018-09-15T07:38:03.558Z,46.40
2018-09-15T07:40:33.543Z,46.30
2018-09-15T07:43:02.334Z,46.40
2018-09-15T07:45:31.115Z,46.50
2018-09-15T07:48:00.162Z,46.70
2018-09-15T07:50:28.980Z,46.80
2018-09-15T07:52:57.770Z,46.80
2018-09-15T07:55:27.008Z,47.30
2018-09-15T07:57:56.015Z,47.30
2018-09-15T08:00:24.801Z,47.40
2018-09-15T08:02:54.678Z,47.80
2018-09-15T08:05:23.444Z,47.70
2018-09-15T08:07:52.247Z,47.80
2018-09-15T08:10:21.815Z,47.10
2018-09-15T08:12:50.682Z,46.90
2018-09-15T08:15:19.465Z,46.80
2018-09-15T08:17:48.310Z,47.00
2018-09-15T08:20:17.114Z,47.20
2018-09-15T08:22:45.888Z,47.60
2018-09-15T08:25:14.911Z,48.00
2018-09-15T08:27:44.033Z,48.30
2018-09-15T08:30:13.224Z,48.30
2018-09-15T08:32:44.059Z,48.70
2018-09-15T08:35:13.180Z,49.20
2018-09-15T08:37:41.974Z,49.70
2018-09-15T08:40:13.495Z,50.30
2018-09-15T08:42:42.289Z,50.60
2018-09-15T08:45:11.253Z,50.70
2018-09-15T08:47:40.400Z,51.20
2018-09-15T08:50:09.501Z,51.80
2018-09-15T08:52:40.164Z,52.60
2018-09-15T08:55:09.365Z,52.60
2018-09-15T08:57:38.486Z,52.10
2018-09-15T09:00:08.467Z,51.20
2018-09-15T09:02:38.518Z,50.30
2018-09-15T09:05:07.408Z,49.20
2018-09-15T09:07:36.705Z,49.20
2018-09-15T09:10:05.558Z,49.10
2018-09-15T09:12:34.344Z,48.90
2018-09-15T09:15:03.156Z,47.90
2018-09-15T09:17:31.986Z,47.20
2018-09-15T09:22:31.798Z,46.80
2018-09-15T09:25:00.578Z,46.70
2018-09-15T09:27:29.366Z,46.50
2018-09-15T09:29:58.500Z,45.90
2018-09-15T09:32:27.437Z,45.20
2018-09-15T09:34:56.253Z,44.80
2018-09-15T09:37:26.274Z,45.20
2018-09-15T09:39:55.016Z,45.20
2018-09-15T09:42:23.945Z,45.80
2018-09-15T09:44:53.998Z,46.50
2018-09-15T09:47:22.938Z,47.10
2018-09-15T09:49:51.870Z,47.70
2018-09-15T09:52:20.976Z,48.20
2018-09-15T09:54:49.736Z,48.80
2018-09-15T09:57:18.521Z,49.60
2018-09-15T09:59:47.559Z,49.70
2018-09-15T10:02:22.339Z,50.00
2018-09-15T10:04:52.225Z,50.50
2018-09-15T10:07:21.462Z,50.70
2018-09-15T10:09:50.425Z,50.90
2018-09-15T10:12:22.414Z,51.50
2018-09-15T10:14:51.623Z,51.90
2018-09-15T10:17:20.846Z,52.20
2018-09-15T10:19:49.856Z,52.20
2018-09-15T10:22:18.959Z,51.90
2018-09-15T10:24:48.482Z,51.90
2018-09-15T10:27:17.691Z,51.90
2018-09-15T10:29:46.830Z,51.80
2018-09-15T10:32:16.909Z,52.00
2018-09-15T10:34:45.703Z,52.10
2018-09-15T10:37:14.875Z,52.20
2018-09-15T10:39:44.281Z,52.50
2018-09-15T10:42:13.505Z,52.40
2018-09-15T10:44:42.728Z,52.40
2018-09-15T10:47:12.472Z,51.60
2018-09-15T10:49:41.669Z,50.40
2018-09-15T10:52:10.787Z,50.20
2018-09-15T10:54:39.707Z,49.10
2018-09-15T10:57:08.883Z,47.90
2018-09-15T10:59:38.020Z,47.20
2018-09-15T11:02:11.814Z,47.70
2018-09-15T11:04:41.067Z,48.20
2018-09-15T11:07:10.156Z,48.60
2018-09-15T11:09:39.534Z,48.20
2018-09-15T11:12:08.284Z,47.10
2018-09-15T11:14:37.290Z,46.30
2018-09-15T11:17:06.904Z,46.20
2018-09-15T11:19:36.621Z,45.10
2018-09-15T11:22:05.914Z,44.10
2018-09-15T11:24:34.894Z,44.10
2018-09-15T11:27:04.741Z,42.50
2018-09-15T11:29:33.920Z,42.50
2018-09-15T11:32:03.446Z,41.80
2018-09-15T11:34:32.561Z,40.40
2018-09-15T11:37:01.553Z,40.30
2018-09-15T11:39:30.601Z,39.50
2018-09-15T11:41:59.675Z,38.80
2018-09-15T11:44:28.903Z,37.60
2018-09-15T11:46:59.160Z,37.20
2018-09-15T11:49:28.196Z,36.80
2018-09-15T11:51:57.332Z,36.70
2018-09-15T11:54:26.662Z,36.40
2018-09-15T11:56:55.786Z,35.80
2018-09-15T11:59:24.854Z,35.50
2018-09-15T12:01:53.994Z,35.30
2018-09-15T12:04:22.942Z,35.10
2018-09-15T12:06:52.939Z,34.90
2018-09-15T12:09:22.084Z,34.90
2018-09-15T12:11:51.195Z,34.50
2018-09-15T12:14:20.100Z,34.40
2018-09-15T12:16:48.828Z,34.30
2018-09-15T12:19:17.652Z,34.30
2018-09-15T12:21:47.369Z,34.10
2018-09-15T12:24:16.105Z,34.10
2018-09-15T12:26:44.933Z,33.90
2018-09-15T12:29:13.996Z,33.70
2018-09-15T12:31:42.773Z,33.80
2018-09-15T12:34:11.808Z,33.40
2018-09-15T12:36:40.932Z,33.40
2018-09-15T12:39:09.884Z,33.30
2018-09-15T12:41:39.384Z,33.20
2018-09-15T12:44:08.554Z,33.20
2018-09-15T12:46:37.806Z,33.10
2018-09-15T12:49:06.854Z,33.10
2018-09-15T12:51:36.222Z,33.00
2018-09-15T12:54:05.270Z,33.00
2018-09-15T12:56:34.304Z,32.90
2018-09-15T12:59:03.916Z,32.90
2018-09-15T13:01:32.947Z,32.90
2018-09-15T13:04:03.170Z,32.70
2018-09-15T13:06:36.256Z,32.60
2018-09-15T13:09:08.078Z,32.60
2018-09-15T13:11:38.184Z,32.40
2018-09-15T13:14:07.519Z,32.40
2018-09-15T13:16:36.718Z,32.40
2018-09-15T13:19:05.971Z,32.00
2018-09-15T13:21:35.002Z,32.00
2018-09-15T13:24:04.057Z,31.90
2018-09-15T13:26:33.997Z,31.80
2018-09-15T13:29:03.110Z,31.80
2018-09-15T13:31:33.652Z,31.60
2018-09-15T13:34:03.061Z,31.60
2018-09-15T13:36:32.187Z,31.50
2018-09-15T13:39:01.965Z,31.30
2018-09-15T13:41:31.034Z,31.20
2018-09-15T13:44:00.059Z,31.00
2018-09-15T13:46:29.141Z,30.90
2018-09-15T13:48:57.908Z,30.80
2018-09-15T13:51:26.958Z,30.70
2018-09-15T13:53:56.355Z,30.60
2018-09-15T13:56:25.400Z,30.50
2018-09-15T13:58:54.533Z,30.40
2018-09-15T14:01:24.527Z,30.40
2018-09-15T14:03:53.772Z,30.30
2018-09-15T14:06:22.557Z,30.30
2018-09-15T14:08:52.623Z,30.30
2018-09-15T14:11:21.402Z,30.30
2018-09-15T14:13:50.413Z,30.30
2018-09-15T14:16:21.002Z,30.30
2018-09-15T14:18:49.962Z,30.30
2018-09-15T14:21:19.297Z,30.30
2018-09-15T14:23:49.033Z,30.20
2018-09-15T14:26:18.136Z,30.20
2018-09-15T14:28:46.930Z,30.10
2018-09-15T14:31:16.173Z,30.10
2018-09-15T14:33:45.105Z,30.00
2018-09-15T14:36:14.035Z,29.90
2018-09-15T14:38:43.182Z,29.80
2018-09-15T14:41:12.057Z,29.70
2018-09-15T14:43:40.849Z,29.70
2018-09-15T14:46:09.621Z,29.60
2018-09-15T14:48:38.713Z,29.40
2018-09-15T14:51:08.227Z,29.40
2018-09-15T14:53:37.591Z,29.40
2018-09-15T14:56:07.008Z,29.20
2018-09-15T14:58:37.938Z,29.10
2018-09-15T15:01:07.461Z,29.00
2018-09-15T15:03:37.806Z,28.90
2018-09-15T15:06:09.038Z,28.90
2018-09-15T15:08:38.992Z,28.90
2018-09-15T15:11:08.081Z,28.80
2018-09-15T15:13:37.401Z,28.80
2018-09-15T15:16:06.323Z,28.70
2018-09-15T15:28:29.787Z,30.10
2018-09-15T15:30:58.749Z,28.70
2018-09-15T15:33:27.971Z,28.80
2018-09-15T15:35:57.330Z,28.70
2018-09-15T15:38:27.323Z,28.70
2018-09-15T15:43:26.595Z,28.70
2018-09-15T15:45:55.951Z,28.60
2018-09-15T15:48:25.725Z,28.50
2018-09-15T15:53:23.541Z,28.40
2018-09-15T16:00:53.228Z,28.20
2018-09-15T16:03:22.140Z,28.00
2018-09-15T16:05:51.947Z,27.90
2018-09-15T16:08:21.186Z,27.80
2018-09-15T16:10:50.226Z,27.70
2018-09-15T16:13:19.749Z,27.60
2018-09-15T16:15:48.980Z,27.50
2018-09-15T16:20:47.421Z,27.40
2018-09-15T16:23:16.679Z,27.30
2018-09-15T16:25:47.183Z,27.30
2018-09-15T16:30:46.071Z,27.20
2018-09-15T16:33:15.973Z,27.20
2018-09-15T16:35:47.454Z,23.70
2018-09-15T16:38:16.715Z,27.20
2018-09-15T16:40:45.645Z,27.10
2018-09-15T16:43:18.097Z,27.00
2018-09-15T16:45:48.748Z,26.90
2018-09-15T16:48:17.855Z,26.80
2018-09-15T16:50:46.685Z,26.80
2018-09-15T16:53:15.489Z,26.60
2018-09-15T16:55:45.554Z,26.50
2018-09-15T16:58:14.683Z,26.40
2018-09-15T17:00:43.810Z,26.30
2018-09-15T17:03:13.189Z,26.20
2018-09-15T17:05:42.458Z,26.10
2018-09-15T17:10:40.517Z,26.00
2018-09-15T17:13:09.889Z,25.90
2018-09-15T17:15:39.109Z,25.80
2018-09-15T17:18:08.532Z,25.70
2018-09-15T17:20:37.632Z,25.60
2018-09-15T17:23:06.917Z,25.60
2018-09-15T17:25:36.481Z,25.50
2018-09-15T17:30:33.894Z,25.30
2018-09-15T17:33:02.815Z,25.20
2018-09-15T17:35:31.594Z,25.10
2018-09-15T17:40:29.126Z,25.00
2018-09-15T17:42:57.931Z,24.90
2018-09-15T17:45:27.142Z,24.90
2018-09-15T17:47:56.482Z,24.80
2018-09-15T17:50:25.661Z,24.70
2018-09-15T17:52:54.770Z,24.60
2018-09-15T17:55:25.745Z,24.60
2018-09-15T18:07:49.336Z,24.40
2018-09-15T18:12:48.020Z,24.30
2018-09-15T18:15:16.879Z,24.20
2018-09-15T18:20:14.924Z,24.10
2018-09-15T18:22:44.146Z,24.10
2018-09-15T18:25:13.214Z,24.00
2018-09-15T18:27:42.091Z,24.00
2018-09-15T18:30:10.918Z,23.90
2018-09-15T18:35:10.004Z,23.80
2018-09-15T18:37:39.113Z,23.80
2018-09-15T18:40:08.360Z,23.70
2018-09-15T18:47:34.689Z,23.60
2018-09-15T18:50:03.772Z,23.60
2018-09-15T18:55:01.932Z,23.60
2018-09-15T18:57:30.768Z,23.50
2018-09-15T18:59:59.920Z,23.50
2018-09-15T19:02:28.870Z,23.50
2018-09-15T19:04:57.690Z,23.40
2018-09-15T19:07:27.264Z,23.40
2018-09-15T19:09:56.089Z,23.40
2018-09-15T19:14:53.816Z,23.40
2018-09-15T19:17:23.088Z,23.30
2018-09-15T19:19:52.281Z,23.40
2018-09-15T19:22:21.656Z,23.30
2018-09-15T19:27:19.224Z,23.30
2018-09-15T19:29:49.245Z,23.30
2018-09-15T19:32:18.357Z,23.40
2018-09-15T19:34:47.481Z,23.30
2018-09-15T19:39:46.113Z,23.40
2018-09-15T19:44:45.275Z,23.50
2018-09-15T19:47:14.477Z,23.50
2018-09-15T19:49:43.480Z,23.50
2018-09-15T19:54:41.823Z,23.50
2018-09-15T19:57:10.712Z,23.50
2018-09-15T19:59:39.773Z,23.50
2018-09-15T20:04:38.123Z,23.40
2018-09-15T20:07:09.597Z,23.40
2018-09-15T20:12:06.881Z,23.30
2018-09-15T20:17:04.386Z,23.20
2018-09-15T20:19:31.909Z,23.20
2018-09-15T20:21:59.585Z,23.20
2018-09-15T20:24:28.382Z,23.10
2018-09-15T20:26:57.179Z,23.10
2018-09-15T20:31:55.151Z,23.10
2018-09-15T20:36:53.075Z,23.00
2018-09-15T20:41:50.680Z,22.90
2018-09-15T20:44:19.761Z,22.90
2018-09-15T20:46:48.585Z,22.80
2018-09-15T20:51:46.458Z,22.80
2018-09-15T20:54:15.289Z,22.70
2018-09-15T20:56:44.788Z,22.70
2018-09-15T20:59:13.863Z,22.60
2018-09-15T21:01:42.742Z,22.60
2018-09-15T21:04:13.198Z,22.70
2018-09-15T21:06:42.398Z,22.60
2018-09-15T21:09:12.402Z,22.60
2018-09-15T21:11:41.514Z,22.60
2018-09-15T21:14:10.765Z,22.60
2018-09-15T21:16:39.901Z,22.60
2018-09-15T21:19:10.641Z,22.60
2018-09-15T21:21:40.017Z,22.60
2018-09-15T21:24:09.816Z,22.60
2018-09-15T21:26:39.499Z,22.60
2018-09-15T21:31:38.514Z,22.60
2018-09-15T21:34:09.980Z,22.60
2018-09-15T21:36:40.604Z,22.60
2018-09-15T21:39:13.708Z,22.70
2018-09-15T21:44:12.907Z,22.60
2018-09-15T21:46:42.273Z,22.70
2018-09-15T21:49:11.458Z,22.70
2018-09-15T21:51:41.339Z,22.70
2018-09-15T21:54:11.224Z,22.70
2018-09-15T21:56:41.384Z,22.70
2018-09-15T21:59:12.986Z,22.60
2018-09-15T22:01:42.680Z,22.60
2018-09-15T22:04:21.109Z,22.60
2018-09-15T22:06:53.227Z,22.50
2018-09-15T22:09:23.756Z,22.50
2018-09-15T22:11:54.215Z,22.50
2018-09-15T22:14:24.757Z,22.40
2018-09-15T22:16:54.318Z,22.30
2018-09-15T22:19:24.490Z,22.30
2018-09-15T22:21:54.766Z,22.20
2018-09-15T22:24:25.258Z,22.20
2018-09-15T22:26:55.451Z,22.10
2018-09-15T22:29:25.099Z,22.10
2018-09-15T22:34:23.711Z,22.00
2018-09-15T22:36:53.932Z,22.00
2018-09-15T22:39:26.000Z,22.00
2018-09-15T22:41:55.653Z,22.00
2018-09-15T22:44:30.596Z,22.00
2018-09-15T22:47:00.526Z,21.90
2018-09-15T22:49:30.472Z,21.80
2018-09-15T22:52:01.110Z,21.80
2018-09-15T22:54:30.947Z,21.80
2018-09-15T22:57:00.672Z,21.80
2018-09-15T22:59:31.243Z,21.80
2018-09-15T23:02:01.371Z,21.60
2018-09-15T23:04:34.075Z,21.70
2018-09-15T23:07:03.328Z,21.70
2018-09-15T23:09:32.560Z,21.70
2018-09-15T23:12:02.195Z,21.70
2018-09-15T23:14:33.109Z,21.70
2018-09-15T23:17:03.020Z,21.60
2018-09-15T23:19:32.651Z,21.60
2018-09-15T23:22:02.827Z,21.60
2018-09-15T23:24:31.762Z,21.60
2018-09-15T23:27:01.647Z,21.60
2018-09-15T23:29:33.046Z,21.60
2018-09-15T23:32:03.412Z,21.60
2018-09-15T23:34:33.317Z,21.60
2018-09-15T23:37:02.594Z,21.50
2018-09-15T23:39:34.365Z,21.50
2018-09-15T23:42:04.402Z,21.50
2018-09-15T23:44:34.141Z,21.50
2018-09-15T23:47:07.957Z,21.50
2018-09-15T23:49:37.102Z,21.60
2018-09-15T23:52:05.894Z,21.50
2018-09-15T23:54:35.087Z,21.50
2018-09-15T23:57:04.802Z,21.50
2018-09-15T23:59:33.998Z,21.50
